createdAt,value
2023-05-17T00:02:23.010Z,12.13
2023-05-17T00:04:50.823Z,16.02
2023-05-17T00:07:20.224Z,12.00
2023-05-17T00:09:47.966Z,12.77
2023-05-17T00:12:16.191Z,12.00
2023-05-17T00:14:43.949Z,7.57
2023-05-17T00:17:11.777Z,12.43
2023-05-17T00:19:39.629Z,15.55
2023-05-17T00:22:07.733Z,10.90
2023-05-17T00:24:36.799Z,13.57
2023-05-17T00:27:06.173Z,10.48
2023-05-17T00:29:34.479Z,9.60
2023-05-17T00:32:02.570Z,10.10
2023-05-17T00:34:30.316Z,11.65
2023-05-17T00:36:58.084Z,6.95
2023-05-17T00:39:26.607Z,9.80
2023-05-17T00:41:55.704Z,11.57
2023-05-17T00:44:23.861Z,16.65
2023-05-17T00:46:51.673Z,12.15
2023-05-17T00:49:19.606Z,14.60
2023-05-17T00:51:47.461Z,11.27
2023-05-17T00:54:15.753Z,11.90
2023-05-17T00:56:43.822Z,15.73
2023-05-17T00:59:14.080Z,12.57
2023-05-17T01:01:43.333Z,12.57
2023-05-17T01:04:11.795Z,11.07
2023-05-17T01:06:41.526Z,8.40
2023-05-17T01:09:10.023Z,10.15
2023-05-17T01:11:44.753Z,10.40
2023-05-17T01:14:25.867Z,11.48
2023-05-17T01:16:57.877Z,11.70
2023-05-17T01:19:43.001Z,15.73
2023-05-17T01:22:17.163Z,15.00
2023-05-17T01:24:53.214Z,6.03
2023-05-17T01:27:23.234Z,15.65
2023-05-17T01:29:52.066Z,10.93
2023-05-17T01:32:20.231Z,12.10
2023-05-17T01:34:47.987Z,13.93
2023-05-17T01:37:16.438Z,13.18
2023-05-17T01:39:44.297Z,15.77
2023-05-17T01:42:15.113Z,11.50
2023-05-17T01:44:50.506Z,17.33
2023-05-17T01:47:22.318Z,10.85
2023-05-17T01:49:53.888Z,11.32
2023-05-17T01:52:30.369Z,13.25
2023-05-17T01:55:06.085Z,12.77
2023-05-17T01:57:36.805Z,14.57
2023-05-17T02:00:09.168Z,7.93
2023-05-17T02:02:44.912Z,12.27
2023-05-17T02:05:12.969Z,11.30
2023-05-17T02:07:43.639Z,8.63
2023-05-17T02:10:12.514Z,10.48
2023-05-17T02:12:43.971Z,10.82
2023-05-17T02:15:13.903Z,12.35
2023-05-17T02:17:42.068Z,11.32
2023-05-17T02:20:11.709Z,9.80
2023-05-17T02:22:39.536Z,11.60
2023-05-17T02:25:08.434Z,13.45
2023-05-17T02:27:36.236Z,8.50
2023-05-17T02:30:04.808Z,6.47
2023-05-17T02:32:34.051Z,6.00
2023-05-17T02:35:02.309Z,7.00
2023-05-17T02:37:30.144Z,7.47
2023-05-17T02:39:57.933Z,9.13
2023-05-17T02:42:25.859Z,5.53
2023-05-17T02:44:56.175Z,6.90
2023-05-17T02:47:23.993Z,11.07
2023-05-17T02:49:53.296Z,6.82
2023-05-17T02:52:21.183Z,14.50
2023-05-17T02:54:49.327Z,6.32
2023-05-17T02:57:17.037Z,10.50
2023-05-17T02:59:45.818Z,8.13
2023-05-17T03:02:13.990Z,10.02
2023-05-17T03:04:41.739Z,9.48
2023-05-17T03:07:11.728Z,10.30
2023-05-17T03:09:40.384Z,5.63
2023-05-17T03:12:09.608Z,8.10
2023-05-17T03:14:37.450Z,7.45
2023-05-17T03:17:05.653Z,12.45
2023-05-17T03:19:35.439Z,10.20
2023-05-17T03:22:04.443Z,8.48
2023-05-17T03:24:35.802Z,6.70
2023-05-17T03:27:04.002Z,6.45
2023-05-17T03:29:33.233Z,18.50
2023-05-17T03:32:01.090Z,8.73
2023-05-17T03:34:29.654Z,11.35
2023-05-17T03:36:57.543Z,9.18
2023-05-17T03:39:25.367Z,9.43
2023-05-17T03:41:54.704Z,9.38
2023-05-17T03:44:23.320Z,8.65
2023-05-17T03:46:52.240Z,8.38
2023-05-17T03:49:20.924Z,10.98
2023-05-17T03:51:49.819Z,12.45
2023-05-17T03:54:19.410Z,6.28
2023-05-17T03:56:49.016Z,12.20
2023-05-17T03:59:19.070Z,8.45
2023-05-17T04:01:47.015Z,9.82
2023-05-17T04:04:18.073Z,12.68
2023-05-17T04:06:46.586Z,8.23
2023-05-17T04:09:15.442Z,8.00
2023-05-17T04:11:43.688Z,8.50
2023-05-17T04:14:12.609Z,8.80
2023-05-17T04:16:41.788Z,8.25
2023-05-17T04:19:10.594Z,10.00
2023-05-17T04:21:38.429Z,7.93
2023-05-17T04:24:06.736Z,7.68
2023-05-17T04:26:35.641Z,7.57
2023-05-17T04:29:04.390Z,11.82
2023-05-17T04:31:32.715Z,9.45
2023-05-17T04:34:03.122Z,7.25
2023-05-17T04:36:31.403Z,10.75
2023-05-17T04:38:59.355Z,11.20
2023-05-17T04:41:31.377Z,10.13
2023-05-17T04:43:59.760Z,11.02
2023-05-17T04:46:33.171Z,8.32
2023-05-17T04:49:01.203Z,9.23
2023-05-17T04:51:30.688Z,6.40
2023-05-17T04:54:00.886Z,9.07
2023-05-17T04:56:30.510Z,9.98
2023-05-17T04:58:58.957Z,8.88
2023-05-17T05:01:26.853Z,9.23
2023-05-17T05:03:54.800Z,8.27
2023-05-17T05:06:23.163Z,6.80
2023-05-17T05:08:52.970Z,10.77
2023-05-17T05:11:21.935Z,7.57
2023-05-17T05:13:50.338Z,8.18
2023-05-17T05:16:18.453Z,10.73
2023-05-17T05:18:47.119Z,7.50
2023-05-17T05:21:14.894Z,8.07
2023-05-17T05:23:42.580Z,7.25
2023-05-17T05:26:12.906Z,11.55
2023-05-17T05:28:41.016Z,10.57
2023-05-17T05:31:10.739Z,7.32
2023-05-17T05:33:45.067Z,9.07
2023-05-17T05:36:13.338Z,7.45
2023-05-17T05:38:41.889Z,5.75
2023-05-17T05:41:09.725Z,13.57
2023-05-17T05:43:40.052Z,8.57
2023-05-17T05:46:08.391Z,13.15
2023-05-17T05:48:39.522Z,8.77
2023-05-17T05:51:08.777Z,8.02
2023-05-17T05:53:39.343Z,10.00
2023-05-17T05:56:07.639Z,10.15
2023-05-17T05:58:35.681Z,9.48
2023-05-17T06:01:06.936Z,9.68
2023-05-17T06:03:35.007Z,14.05
2023-05-17T06:06:02.864Z,7.93
2023-05-17T06:08:30.733Z,6.72
2023-05-17T06:10:58.554Z,5.82
2023-05-17T06:13:27.544Z,11.25
2023-05-17T06:15:55.320Z,8.95
2023-05-17T06:18:24.680Z,5.35
2023-05-17T06:20:52.481Z,10.70
2023-05-17T06:23:20.233Z,8.75
2023-05-17T06:25:48.464Z,3.58
2023-05-17T06:28:16.204Z,5.43
2023-05-17T06:30:44.134Z,6.13
2023-05-17T06:33:12.153Z,6.68
2023-05-17T06:35:54.861Z,5.80
2023-05-17T06:38:22.972Z,4.68
2023-05-17T06:40:53.224Z,7.68
2023-05-17T06:43:21.342Z,4.70
2023-05-17T06:45:49.174Z,7.45
2023-05-17T06:48:17.245Z,6.75
2023-05-17T06:50:46.421Z,6.47
2023-05-17T06:53:14.375Z,6.13
2023-05-17T06:55:43.157Z,6.72
2023-05-17T06:58:10.986Z,10.75
2023-05-17T07:00:38.727Z,6.28
2023-05-17T07:03:06.718Z,6.45
2023-05-17T07:05:34.683Z,8.52
2023-05-17T07:08:04.116Z,8.70
2023-05-17T07:10:32.064Z,7.68
2023-05-17T07:13:00.358Z,8.82
2023-05-17T07:15:28.493Z,5.40
2023-05-17T07:17:56.474Z,6.70
2023-05-17T07:20:24.471Z,5.25
2023-05-17T07:22:52.271Z,6.72
2023-05-17T07:25:22.011Z,8.13
2023-05-17T07:27:49.816Z,6.93
2023-05-17T07:30:17.686Z,5.40
2023-05-17T07:32:45.975Z,5.18
2023-05-17T07:35:13.731Z,7.28
2023-05-17T07:37:44.237Z,8.13
2023-05-17T07:40:12.852Z,10.13
2023-05-17T07:42:42.260Z,6.43
2023-05-17T07:45:11.012Z,6.05
2023-05-17T07:47:38.824Z,6.82
2023-05-17T07:50:07.968Z,7.28
2023-05-17T07:52:36.617Z,5.80
2023-05-17T07:55:05.896Z,5.13
2023-05-17T07:57:34.383Z,7.97
2023-05-17T08:00:04.172Z,6.40
2023-05-17T08:02:39.542Z,7.03
2023-05-17T08:05:08.414Z,4.32
2023-05-17T08:07:36.219Z,7.05
2023-05-17T08:10:03.992Z,6.25
2023-05-17T08:12:31.795Z,5.70
2023-05-17T08:14:59.733Z,5.53
2023-05-17T08:17:28.890Z,11.55
2023-05-17T08:19:59.605Z,6.25
2023-05-17T08:22:27.923Z,5.18
2023-05-17T08:24:55.689Z,2.53
2023-05-17T08:27:24.426Z,6.45
2023-05-17T08:29:54.753Z,5.18
2023-05-17T08:32:23.568Z,4.47
2023-05-17T08:34:52.919Z,6.03
2023-05-17T08:37:20.793Z,9.45
2023-05-17T08:39:49.641Z,9.55
2023-05-17T08:42:19.186Z,5.63
2023-05-17T08:44:47.277Z,6.43
2023-05-17T08:47:26.267Z,5.47
2023-05-17T08:49:57.651Z,6.32
2023-05-17T08:52:25.360Z,6.07
2023-05-17T08:54:53.960Z,7.80
2023-05-17T08:57:22.907Z,7.63
2023-05-17T08:59:50.704Z,6.40
2023-05-17T09:02:18.668Z,8.15
2023-05-17T09:04:46.672Z,5.55
2023-05-17T09:07:17.335Z,5.40
2023-05-17T09:09:45.445Z,7.40
2023-05-17T09:12:13.299Z,12.40
2023-05-17T09:14:41.017Z,5.15
2023-05-17T09:17:08.708Z,8.18
2023-05-17T09:19:44.512Z,4.50
2023-05-17T09:22:16.298Z,7.38
2023-05-17T09:24:44.136Z,5.47
2023-05-17T09:27:16.352Z,7.25
2023-05-17T09:29:45.758Z,6.10
2023-05-17T09:32:14.754Z,8.02
2023-05-17T09:34:43.908Z,7.13
2023-05-17T09:37:14.202Z,3.67
2023-05-17T09:39:44.760Z,5.82
2023-05-17T09:42:12.705Z,8.18
2023-05-17T09:44:48.416Z,3.65
2023-05-17T09:47:24.611Z,5.75
2023-05-17T09:49:52.551Z,2.67
2023-05-17T09:52:21.469Z,4.97
2023-05-17T09:54:57.848Z,3.33
2023-05-17T09:57:28.006Z,5.82
2023-05-17T09:59:57.581Z,6.03
2023-05-17T10:02:28.610Z,5.43
2023-05-17T10:04:58.205Z,6.90
2023-05-17T10:07:27.753Z,5.65
2023-05-17T10:09:57.569Z,4.63
2023-05-17T10:12:26.731Z,2.35
2023-05-17T10:14:57.062Z,4.15
2023-05-17T10:17:25.292Z,5.65
2023-05-17T10:19:53.878Z,5.38
2023-05-17T10:22:23.914Z,5.28
2023-05-17T10:24:52.825Z,5.55
2023-05-17T10:27:22.647Z,4.97
2023-05-17T10:29:52.497Z,7.65
2023-05-17T10:32:22.889Z,4.63
2023-05-17T10:34:58.026Z,6.85
2023-05-17T10:37:34.791Z,3.28
2023-05-17T10:40:02.745Z,3.08
2023-05-17T10:42:32.205Z,5.63
2023-05-17T10:45:01.674Z,6.00
2023-05-17T10:47:33.215Z,2.67
2023-05-17T10:50:01.770Z,4.43
2023-05-17T10:52:29.972Z,3.20
2023-05-17T10:55:00.699Z,2.03
2023-05-17T11:00:10.979Z,7.55
2023-05-17T11:02:42.451Z,2.20
2023-05-17T11:05:23.715Z,4.28
2023-05-17T11:07:51.646Z,4.15
2023-05-17T11:10:19.443Z,3.58
2023-05-17T11:12:54.031Z,2.28
2023-05-17T11:15:25.144Z,4.80
2023-05-17T11:17:54.858Z,4.90
2023-05-17T11:20:33.705Z,3.03
2023-05-17T11:23:04.279Z,3.83
2023-05-17T11:25:35.592Z,2.40
2023-05-17T11:28:09.769Z,2.08
2023-05-17T11:30:42.226Z,2.25
2023-05-17T11:33:17.220Z,2.80
2023-05-17T11:35:55.198Z,2.53
2023-05-17T11:38:25.347Z,4.78
2023-05-17T11:40:54.740Z,4.47
2023-05-17T11:43:25.791Z,4.25
2023-05-17T11:45:57.358Z,5.28
2023-05-17T11:48:27.000Z,2.90
2023-05-17T11:50:56.777Z,3.03
2023-05-17T11:53:26.059Z,4.45
2023-05-17T11:55:54.255Z,5.43
2023-05-17T11:58:27.379Z,4.38
2023-05-17T12:00:56.271Z,3.60
2023-05-17T12:03:25.757Z,2.35
2023-05-17T12:06:02.785Z,5.07
2023-05-17T12:08:32.570Z,6.82
2023-05-17T12:11:00.323Z,3.85
2023-05-17T12:13:30.965Z,4.32
2023-05-17T12:16:02.201Z,4.15
2023-05-17T12:18:37.991Z,3.83
2023-05-17T12:21:06.571Z,5.13
2023-05-17T12:23:35.184Z,2.35
2023-05-17T12:26:04.928Z,4.30
2023-05-17T12:28:34.270Z,2.38
2023-05-17T12:31:03.740Z,4.20
2023-05-17T12:33:33.991Z,6.53
2023-05-17T12:36:02.801Z,4.60
2023-05-17T12:38:32.237Z,2.85
2023-05-17T12:41:01.842Z,5.85
2023-05-17T12:43:30.055Z,4.63
2023-05-17T12:46:04.031Z,2.78
2023-05-17T12:48:32.181Z,6.72
2023-05-17T12:51:07.180Z,3.65
2023-05-17T12:53:39.263Z,2.47
2023-05-17T12:56:07.760Z,7.00
2023-05-17T12:58:36.567Z,2.55
2023-05-17T13:01:08.175Z,3.05
2023-05-17T13:03:36.787Z,3.30
2023-05-17T13:06:07.809Z,4.75
2023-05-17T13:08:36.246Z,3.58
2023-05-17T13:11:11.539Z,4.88
2023-05-17T13:13:39.936Z,4.32
2023-05-17T13:16:09.267Z,5.32
2023-05-17T13:18:51.564Z,4.38
2023-05-17T13:21:20.471Z,5.88
2023-05-17T13:23:49.268Z,5.00
2023-05-17T13:26:18.071Z,1.90
2023-05-17T13:28:46.332Z,6.82
2023-05-17T13:31:15.514Z,5.30
2023-05-17T13:33:45.422Z,3.08
2023-05-17T13:36:13.261Z,3.08
2023-05-17T13:38:41.151Z,3.88
2023-05-17T13:41:09.341Z,2.70
2023-05-17T13:43:37.931Z,4.72
2023-05-17T13:46:05.780Z,3.85
2023-05-17T13:48:35.623Z,4.38
2023-05-17T13:51:03.645Z,3.40
2023-05-17T13:53:31.785Z,4.05
2023-05-17T13:55:59.530Z,3.95
2023-05-17T13:58:27.392Z,5.63
2023-05-17T14:00:55.380Z,2.42
2023-05-17T14:03:23.258Z,8.52
2023-05-17T14:05:53.415Z,3.78
2023-05-17T14:08:21.416Z,3.35
2023-05-17T14:10:49.760Z,4.63
2023-05-17T14:13:17.507Z,4.55
2023-05-17T14:15:45.381Z,3.10
2023-05-17T14:18:13.386Z,2.65
2023-05-17T14:20:41.325Z,4.20
2023-05-17T14:23:10.747Z,4.68
2023-05-17T14:25:38.481Z,2.88
2023-05-17T14:28:06.305Z,2.42
2023-05-17T14:30:34.505Z,3.95
2023-05-17T14:33:02.471Z,2.30
2023-05-17T14:35:31.161Z,2.42
2023-05-17T14:37:58.922Z,2.58
2023-05-17T14:40:28.805Z,3.10
2023-05-17T14:42:57.052Z,2.33
2023-05-17T14:45:24.779Z,3.10
2023-05-17T14:47:52.729Z,3.10
2023-05-17T14:50:20.610Z,4.03
2023-05-17T14:52:48.370Z,5.95
2023-05-17T14:55:17.892Z,5.55
2023-05-17T14:57:47.195Z,4.68
2023-05-17T15:00:15.384Z,5.10
2023-05-17T15:02:43.239Z,4.88
2023-05-17T15:05:12.052Z,4.45
2023-05-17T15:07:39.770Z,4.68
2023-05-17T15:10:09.805Z,3.92
2023-05-17T15:12:37.629Z,5.00
2023-05-17T15:15:08.085Z,8.23
2023-05-17T15:17:36.732Z,6.85
2023-05-17T15:20:07.496Z,3.53
2023-05-17T15:22:35.574Z,3.58
2023-05-17T15:25:03.370Z,1.98
2023-05-17T15:27:31.699Z,3.60
2023-05-17T15:29:59.617Z,2.33
2023-05-17T15:32:29.090Z,3.92
2023-05-17T15:34:59.067Z,4.72
2023-05-17T15:37:26.857Z,5.53
2023-05-17T15:39:54.644Z,5.35
2023-05-17T15:42:22.439Z,4.38
2023-05-17T15:44:50.391Z,6.68
2023-05-17T15:47:19.380Z,3.92
2023-05-17T15:49:49.954Z,3.35
2023-05-17T15:52:17.870Z,2.70
2023-05-17T15:54:47.927Z,2.20
2023-05-17T15:57:16.377Z,4.47
2023-05-17T15:59:44.077Z,3.28
2023-05-17T16:02:12.008Z,3.75
2023-05-17T16:04:40.048Z,4.22
2023-05-17T16:07:09.166Z,2.80
2023-05-17T16:09:37.617Z,3.15
2023-05-17T16:12:06.111Z,1.55
2023-05-17T16:14:34.407Z,4.43
2023-05-17T16:17:05.977Z,2.92
2023-05-17T16:19:34.718Z,3.83
2023-05-17T16:22:02.805Z,4.10
2023-05-17T16:24:32.023Z,3.95
2023-05-17T16:27:00.438Z,5.40
2023-05-17T16:29:28.462Z,3.70
2023-05-17T16:31:57.611Z,3.13
2023-05-17T16:34:27.377Z,3.28
2023-05-17T16:36:55.366Z,4.88
2023-05-17T16:39:23.055Z,2.60
2023-05-17T16:41:53.064Z,3.00
2023-05-17T16:44:20.912Z,5.47
2023-05-17T16:46:48.709Z,3.33
2023-05-17T16:49:16.807Z,4.88
2023-05-17T16:51:45.598Z,5.85
2023-05-17T16:54:13.877Z,6.57
2023-05-17T16:56:41.670Z,3.10
2023-05-17T16:59:11.317Z,5.82
2023-05-17T17:01:39.338Z,4.38
2023-05-17T17:04:08.154Z,4.53
2023-05-17T17:06:36.439Z,3.78
2023-05-17T17:09:08.141Z,2.90
2023-05-17T17:11:36.456Z,3.75
2023-05-17T17:14:05.486Z,4.35
2023-05-17T17:16:35.327Z,3.45
2023-05-17T17:19:03.633Z,3.80
2023-05-17T17:21:36.288Z,3.95
2023-05-17T17:24:05.842Z,5.68
2023-05-17T17:26:35.165Z,3.35
2023-05-17T17:29:04.227Z,6.45
2023-05-17T17:31:32.115Z,4.72
2023-05-17T17:34:01.220Z,4.38
2023-05-17T17:36:28.965Z,3.38
2023-05-17T17:38:57.106Z,3.28
2023-05-17T17:41:24.934Z,3.00
2023-05-17T17:43:52.680Z,3.38
2023-05-17T17:46:20.912Z,2.80
2023-05-17T17:48:48.865Z,7.25
2023-05-17T17:51:18.139Z,4.80
2023-05-17T17:53:46.252Z,4.30
2023-05-17T17:56:14.053Z,4.43
2023-05-17T17:58:41.793Z,5.95
2023-05-17T18:01:09.593Z,7.82
2023-05-17T18:03:37.438Z,3.42
2023-05-17T18:06:05.806Z,4.60
2023-05-17T18:08:34.852Z,2.85
2023-05-17T18:11:03.339Z,2.60
2023-05-17T18:13:31.856Z,6.75
2023-05-17T18:15:59.751Z,8.88
2023-05-17T18:18:28.144Z,3.35
2023-05-17T18:20:55.950Z,4.78
2023-05-17T18:23:23.705Z,4.32
2023-05-17T18:25:52.863Z,4.45
2023-05-17T18:28:30.060Z,2.13
2023-05-17T18:31:08.642Z,2.78
2023-05-17T18:33:36.422Z,2.63
2023-05-17T18:36:04.475Z,3.30
2023-05-17T18:38:32.226Z,4.82
2023-05-17T18:41:01.733Z,3.60
2023-05-17T18:43:30.584Z,3.38
2023-05-17T18:45:58.297Z,2.00
2023-05-17T18:48:26.861Z,2.05
2023-05-17T18:50:54.697Z,2.17
2023-05-17T18:53:22.528Z,3.40
2023-05-17T18:55:50.280Z,4.30
2023-05-17T18:58:19.455Z,3.20
2023-05-17T19:00:48.504Z,2.97
2023-05-17T19:03:16.368Z,4.78
2023-05-17T19:05:44.115Z,4.05
2023-05-17T19:08:12.332Z,3.55
2023-05-17T19:10:40.956Z,4.43
2023-05-17T19:13:08.679Z,2.25
2023-05-17T19:15:38.676Z,3.15
2023-05-17T19:18:06.531Z,4.60
2023-05-17T19:20:34.535Z,6.88
2023-05-17T19:23:02.250Z,4.15
2023-05-17T19:25:30.066Z,5.40
2023-05-17T19:27:58.161Z,3.70
2023-05-17T19:30:26.359Z,4.50
2023-05-17T19:32:55.977Z,2.35
2023-05-17T19:35:24.956Z,4.53
2023-05-17T19:37:52.738Z,2.28
2023-05-17T19:40:22.165Z,2.67
2023-05-17T19:42:50.462Z,2.03
2023-05-17T19:45:18.257Z,5.07
2023-05-17T19:47:46.589Z,6.00
2023-05-17T19:50:16.713Z,5.25
2023-05-17T19:52:44.557Z,5.13
2023-05-17T19:55:15.078Z,5.60
2023-05-17T19:57:43.351Z,3.30
2023-05-17T20:00:12.484Z,8.77
2023-05-17T20:02:40.340Z,2.03
2023-05-17T20:05:09.136Z,5.25
2023-05-17T20:07:38.262Z,5.15
2023-05-17T20:10:06.468Z,7.85
2023-05-17T20:12:34.260Z,4.07
2023-05-17T20:15:02.055Z,16.33
2023-05-17T20:17:30.736Z,5.20
2023-05-17T20:19:58.841Z,6.60
2023-05-17T20:22:26.634Z,2.85
2023-05-17T20:24:57.924Z,5.32
2023-05-17T20:27:26.787Z,2.85
2023-05-17T20:29:54.766Z,4.05
2023-05-17T20:32:22.642Z,4.50
2023-05-17T20:34:50.920Z,7.78
2023-05-17T20:37:19.652Z,4.38
2023-05-17T20:39:47.868Z,5.97
2023-05-17T20:42:18.250Z,11.48
2023-05-17T20:44:46.125Z,4.95
2023-05-17T20:47:13.924Z,6.38
2023-05-17T20:49:41.820Z,8.68
2023-05-17T20:52:09.859Z,5.28
2023-05-17T20:54:37.960Z,5.40
2023-05-17T20:57:06.574Z,2.40
2023-05-17T20:59:36.542Z,8.13
2023-05-17T21:02:06.804Z,7.22
2023-05-17T21:04:34.694Z,4.30
2023-05-17T21:07:02.755Z,2.30
2023-05-17T21:09:30.583Z,4.68
2023-05-17T21:11:58.858Z,3.25
2023-05-17T21:14:26.592Z,5.22
2023-05-17T21:16:56.980Z,3.42
2023-05-17T21:19:24.717Z,3.97
2023-05-17T21:21:52.643Z,6.75
2023-05-17T21:24:20.354Z,4.60
2023-05-17T21:26:51.322Z,7.43
2023-05-17T21:29:19.214Z,3.83
2023-05-17T21:31:47.465Z,3.78
2023-05-17T21:34:16.574Z,4.03
2023-05-17T21:36:44.453Z,2.80
2023-05-17T21:39:12.296Z,3.67
2023-05-17T21:41:40.039Z,5.43
2023-05-17T21:44:08.201Z,4.78
2023-05-17T21:46:36.108Z,4.60
2023-05-17T21:49:03.903Z,3.17
2023-05-17T21:51:33.302Z,5.90
2023-05-17T21:54:01.217Z,5.25
2023-05-17T21:56:29.587Z,4.68
2023-05-17T21:58:57.317Z,6.28
2023-05-17T22:01:25.297Z,2.72
2023-05-17T22:03:55.126Z,4.60
2023-05-17T22:06:23.507Z,2.67
2023-05-17T22:08:52.683Z,2.20
2023-05-17T22:11:22.792Z,5.95
2023-05-17T22:13:51.762Z,9.73
2023-05-17T22:16:22.330Z,3.35
2023-05-17T22:18:52.396Z,4.47
2023-05-17T22:21:22.594Z,2.10
2023-05-17T22:23:51.852Z,3.13
2023-05-17T22:26:20.217Z,4.53
2023-05-17T22:28:48.329Z,5.88
2023-05-17T22:31:18.287Z,5.13
2023-05-17T22:33:46.200Z,8.30
2023-05-17T22:36:15.341Z,6.22
2023-05-17T22:38:43.468Z,3.75
2023-05-17T22:41:13.587Z,5.75
2023-05-17T22:43:41.689Z,6.70
2023-05-17T22:46:09.689Z,6.82
2023-05-17T22:48:40.956Z,5.05
2023-05-17T22:51:08.835Z,4.65
2023-05-17T22:53:36.937Z,6.15
2023-05-17T22:56:04.808Z,6.32
2023-05-17T22:58:34.663Z,7.05
2023-05-17T23:01:02.578Z,8.57
2023-05-17T23:03:31.062Z,4.50
2023-05-17T23:06:03.373Z,6.10
2023-05-17T23:08:31.637Z,6.13
2023-05-17T23:10:59.901Z,4.30
2023-05-17T23:13:28.235Z,8.80
2023-05-17T23:15:57.629Z,8.80
2023-05-17T23:18:27.395Z,9.38
2023-05-17T23:20:55.467Z,4.25
2023-05-17T23:23:24.043Z,5.72
2023-05-17T23:25:52.406Z,5.78
2023-05-17T23:28:21.375Z,7.85
2023-05-17T23:30:49.866Z,5.03
2023-05-17T23:33:19.261Z,5.97
2023-05-17T23:35:47.033Z,3.88
2023-05-17T23:38:16.018Z,7.82
2023-05-17T23:40:43.734Z,5.63
2023-05-17T23:43:11.801Z,3.72
2023-05-17T23:45:39.779Z,5.55
2023-05-17T23:48:09.595Z,5.15
2023-05-17T23:50:40.994Z,5.45
2023-05-17T23:53:09.446Z,4.47
2023-05-17T23:55:37.526Z,3.03
2023-05-17T23:58:05.272Z,5.05
